KEVW/EVW METAR and TAF weather

Enter ICAO airport designator
Station Type Date Time Source
KEVW METAR 2019/06/26 05:53 UTC NOAA

KEVW 260553Z AUTO 25007KT 10SM CLR 15/M03 A3008 RMK AO2 SLP089 T01501033 10239 20133 51014 $


Station Type Date Time Source
KEVW Decoded METAR 2019/06/26 05:53 UTC NOAA

EVANSTON-UINTA COUNTY FIELD, WY, United States (KEVW) 41-16N 111-02W 2177M
Jun 26, 2019 - 01:53 AM EDT / 2019.06.26 0553 UTC
Wind: from the WSW (250 degrees) at 8 MPH (7 KT):0
Visibility: 10 mile(s):0
Sky conditions: clear
Temperature: 59.0 F (15.0 C)
Dew Point: 26.1 F (-3.3 C)
Relative Humidity: 28%
Pressure (altimeter): 30.08 in. Hg (1018 hPa)
Pressure tendency: 0.04 inches (1.4 hPa) higher than three hours ago
ob: KEVW 260553Z AUTO 25007KT 10SM CLR 15/M03 A3008 RMK AO2 SLP089 T01501033 10239 20133 51014
cycle: 6

Station Type Date Time Source
KEVW TAF 2019/06/26 06:24 UTC NOAA

TAF KEVW 260520Z 2606/2706 17006KT P6SM SCT150
FM261800 23018G26KT P6SM SCT080 SCT150
FM270300 20010KT P6SM SCT150

Example: see airport list